sensor_id;sensor_type;location;lat;lon;timestamp;temperature;humidity
55719;DHT22;41623;46.104;19.656;2024-02-28T00:00:55;410.20;1817.60
55719;DHT22;41623;46.104;19.656;2024-02-28T00:03:21;410.20;1817.60
55719;DHT22;41623;46.104;19.656;2024-02-28T00:05:49;410.20;1817.60
55719;DHT22;41623;46.104;19.656;2024-02-28T00:08:15;410.20;1817.60
55719;DHT22;41623;46.104;19.656;2024-02-28T00:10:42;410.20;1817.60
55719;DHT22;41623;46.104;19.656;2024-02-28T00:13:08;410.20;1817.60
55719;DHT22;41623;46.104;19.656;2024-02-28T00:15:33;410.20;1817.60
55719;DHT22;41623;46.104;19.656;2024-02-28T00:17:59;410.20;1817.60
55719;DHT22;41623;46.104;19.656;2024-02-28T00:20:25;410.20;1817.60
55719;DHT22;41623;46.104;19.656;2024-02-28T00:22:52;410.20;1817.60
55719;DHT22;41623;46.104;19.656;2024-02-28T00:25:18;410.20;1817.60
55719;DHT22;41623;46.104;19.656;2024-02-28T00:27:44;410.20;1817.60
55719;DHT22;41623;46.104;19.656;2024-02-28T00:30:10;410.20;1817.60
55719;DHT22;41623;46.104;19.656;2024-02-28T00:32:36;410.20;1817.60
55719;DHT22;41623;46.104;19.656;2024-02-28T00:35:01;410.20;1817.60
55719;DHT22;41623;46.104;19.656;2024-02-28T00:37:28;410.20;1817.60
55719;DHT22;41623;46.104;19.656;2024-02-28T00:39:53;410.20;1817.60
55719;DHT22;41623;46.104;19.656;2024-02-28T00:42:19;410.20;1817.60
55719;DHT22;41623;46.104;19.656;2024-02-28T00:44:45;410.20;1817.60
55719;DHT22;41623;46.104;19.656;2024-02-28T00:47:11;410.20;1817.60
55719;DHT22;41623;46.104;19.656;2024-02-28T00:49:37;410.20;1817.60
55719;DHT22;41623;46.104;19.656;2024-02-28T00:52:03;410.20;1817.60
55719;DHT22;41623;46.104;19.656;2024-02-28T00:54:29;410.20;1817.60
55719;DHT22;41623;46.104;19.656;2024-02-28T00:56:55;410.20;1817.60
55719;DHT22;41623;46.104;19.656;2024-02-28T00:59:20;410.20;1817.60
55719;DHT22;41623;46.104;19.656;2024-02-28T01:01:48;410.20;1817.60
55719;DHT22;41623;46.104;19.656;2024-02-28T01:04:14;410.20;1817.60
55719;DHT22;41623;46.104;19.656;2024-02-28T01:06:39;410.20;1817.60
55719;DHT22;41623;46.104;19.656;2024-02-28T01:09:05;410.20;1817.60
55719;DHT22;41623;46.104;19.656;2024-02-28T01:11:31;410.20;1817.60
55719;DHT22;41623;46.104;19.656;2024-02-28T01:13:56;410.20;1817.60
55719;DHT22;41623;46.104;19.656;2024-02-28T01:16:22;410.20;1817.60
55719;DHT22;41623;46.104;19.656;2024-02-28T01:18:48;410.20;1817.60
55719;DHT22;41623;46.104;19.656;2024-02-28T01:21:13;410.20;1817.60
55719;DHT22;41623;46.104;19.656;2024-02-28T01:23:39;410.20;1817.60
55719;DHT22;41623;46.104;19.656;2024-02-28T01:26:05;410.20;1817.60
55719;DHT22;41623;46.104;19.656;2024-02-28T01:28:31;410.20;1817.60
55719;DHT22;41623;46.104;19.656;2024-02-28T01:30:57;410.20;1817.60
55719;DHT22;41623;46.104;19.656;2024-02-28T01:33:23;410.20;1817.60
55719;DHT22;41623;46.104;19.656;2024-02-28T01:35:49;410.20;1817.60
55719;DHT22;41623;46.104;19.656;2024-02-28T01:38:15;410.20;1817.60
55719;DHT22;41623;46.104;19.656;2024-02-28T01:40:47;410.20;1817.60
55719;DHT22;41623;46.104;19.656;2024-02-28T01:43:13;410.20;1817.60
55719;DHT22;41623;46.104;19.656;2024-02-28T01:45:39;410.20;1817.60
55719;DHT22;41623;46.104;19.656;2024-02-28T01:48:07;410.20;1817.60
55719;DHT22;41623;46.104;19.656;2024-02-28T01:50:34;410.20;1817.60
55719;DHT22;41623;46.104;19.656;2024-02-28T01:53:01;410.30;1817.60
55719;DHT22;41623;46.104;19.656;2024-02-28T01:55:27;410.20;1817.60
55719;DHT22;41623;46.104;19.656;2024-02-28T01:57:53;410.20;1817.60
55719;DHT22;41623;46.104;19.656;2024-02-28T02:00:20;410.20;1817.60
55719;DHT22;41623;46.104;19.656;2024-02-28T02:02:47;410.20;1817.60
55719;DHT22;41623;46.104;19.656;2024-02-28T02:05:13;410.20;1817.60
55719;DHT22;41623;46.104;19.656;2024-02-28T02:07:41;410.20;1817.60
55719;DHT22;41623;46.104;19.656;2024-02-28T02:10:07;410.20;1817.60
55719;DHT22;41623;46.104;19.656;2024-02-28T02:12:36;410.20;1817.60
55719;DHT22;41623;46.104;19.656;2024-02-28T02:15:02;410.20;1817.60
55719;DHT22;41623;46.104;19.656;2024-02-28T02:17:27;410.20;1817.60
55719;DHT22;41623;46.104;19.656;2024-02-28T02:19:53;410.20;1817.60
55719;DHT22;41623;46.104;19.656;2024-02-28T02:22:20;410.20;1817.60
55719;DHT22;41623;46.104;19.656;2024-02-28T02:24:45;410.20;1817.60
55719;DHT22;41623;46.104;19.656;2024-02-28T02:27:11;410.20;1817.60
55719;DHT22;41623;46.104;19.656;2024-02-28T02:29:37;410.20;1817.60
55719;DHT22;41623;46.104;19.656;2024-02-28T02:32:03;410.20;1817.60
55719;DHT22;41623;46.104;19.656;2024-02-28T02:34:29;410.20;1817.60
55719;DHT22;41623;46.104;19.656;2024-02-28T02:36:55;410.20;1817.60
55719;DHT22;41623;46.104;19.656;2024-02-28T02:39:21;410.20;1817.60
55719;DHT22;41623;46.104;19.656;2024-02-28T02:41:47;410.20;1817.60
55719;DHT22;41623;46.104;19.656;2024-02-28T02:44:13;410.20;1817.60
55719;DHT22;41623;46.104;19.656;2024-02-28T02:46:38;410.20;1817.60
55719;DHT22;41623;46.104;19.656;2024-02-28T02:49:04;410.20;1817.60
55719;DHT22;41623;46.104;19.656;2024-02-28T02:51:30;410.20;1817.60
55719;DHT22;41623;46.104;19.656;2024-02-28T02:53:56;410.20;1817.60
55719;DHT22;41623;46.104;19.656;2024-02-28T02:56:21;410.20;1817.60
55719;DHT22;41623;46.104;19.656;2024-02-28T02:58:47;410.20;1817.60
55719;DHT22;41623;46.104;19.656;2024-02-28T03:01:13;410.20;1817.60
55719;DHT22;41623;46.104;19.656;2024-02-28T03:03:40;410.20;1817.60
55719;DHT22;41623;46.104;19.656;2024-02-28T03:06:06;410.20;1817.60
55719;DHT22;41623;46.104;19.656;2024-02-28T03:08:32;410.20;1817.60
55719;DHT22;41623;46.104;19.656;2024-02-28T03:10:58;410.20;1817.60
55719;DHT22;41623;46.104;19.656;2024-02-28T03:13:24;410.20;1817.60
55719;DHT22;41623;46.104;19.656;2024-02-28T03:15:49;410.20;1817.60
55719;DHT22;41623;46.104;19.656;2024-02-28T03:18:15;410.20;1817.60
55719;DHT22;41623;46.104;19.656;2024-02-28T03:20:41;410.20;1817.60
55719;DHT22;41623;46.104;19.656;2024-02-28T03:23:06;410.20;1817.60
55719;DHT22;41623;46.104;19.656;2024-02-28T03:25:32;410.20;1817.60
55719;DHT22;41623;46.104;19.656;2024-02-28T03:27:59;410.20;1817.60
55719;DHT22;41623;46.104;19.656;2024-02-28T03:30:26;410.20;1817.60
55719;DHT22;41623;46.104;19.656;2024-02-28T03:32:52;410.20;1817.60
55719;DHT22;41623;46.104;19.656;2024-02-28T03:35:18;410.20;1817.60
55719;DHT22;41623;46.104;19.656;2024-02-28T03:37:43;410.20;1817.60
55719;DHT22;41623;46.104;19.656;2024-02-28T03:40:09;410.20;1817.60
55719;DHT22;41623;46.104;19.656;2024-02-28T03:42:35;410.20;1817.60
55719;DHT22;41623;46.104;19.656;2024-02-28T03:45:01;410.20;1817.60
55719;DHT22;41623;46.104;19.656;2024-02-28T03:47:26;410.20;1817.60
55719;DHT22;41623;46.104;19.656;2024-02-28T03:49:52;410.20;1817.60
55719;DHT22;41623;46.104;19.656;2024-02-28T03:52:18;410.20;1817.60
55719;DHT22;41623;46.104;19.656;2024-02-28T03:54:44;410.20;1817.60
55719;DHT22;41623;46.104;19.656;2024-02-28T03:57:10;410.20;1817.60
55719;DHT22;41623;46.104;19.656;2024-02-28T03:59:35;410.20;1817.60
55719;DHT22;41623;46.104;19.656;2024-02-28T04:02:01;410.20;1817.60
55719;DHT22;41623;46.104;19.656;2024-02-28T04:04:27;410.20;1817.60
55719;DHT22;41623;46.104;19.656;2024-02-28T04:06:53;410.20;1817.60
55719;DHT22;41623;46.104;19.656;2024-02-28T04:09:19;410.20;1817.60
55719;DHT22;41623;46.104;19.656;2024-02-28T04:11:46;410.20;1817.60
55719;DHT22;41623;46.104;19.656;2024-02-28T04:14:11;410.20;1817.60
55719;DHT22;41623;46.104;19.656;2024-02-28T04:16:43;410.20;1817.60
55719;DHT22;41623;46.104;19.656;2024-02-28T04:19:10;410.20;1817.60
55719;DHT22;41623;46.104;19.656;2024-02-28T04:21:36;410.20;1817.60
55719;DHT22;41623;46.104;19.656;2024-02-28T04:24:02;410.20;1817.60
55719;DHT22;41623;46.104;19.656;2024-02-28T04:26:29;410.20;1817.60
55719;DHT22;41623;46.104;19.656;2024-02-28T04:28:55;410.20;1817.60
55719;DHT22;41623;46.104;19.656;2024-02-28T04:31:21;410.20;1817.60
55719;DHT22;41623;46.104;19.656;2024-02-28T04:33:47;410.20;1817.60
55719;DHT22;41623;46.104;19.656;2024-02-28T04:36:13;410.20;1817.60
55719;DHT22;41623;46.104;19.656;2024-02-28T04:38:40;410.20;1817.60
55719;DHT22;41623;46.104;19.656;2024-02-28T04:41:06;410.20;1817.60
55719;DHT22;41623;46.104;19.656;2024-02-28T04:43:31;410.20;1817.60
55719;DHT22;41623;46.104;19.656;2024-02-28T04:45:57;410.20;1817.60
55719;DHT22;41623;46.104;19.656;2024-02-28T04:48:23;410.20;1817.60
55719;DHT22;41623;46.104;19.656;2024-02-28T04:50:49;410.20;1817.60
55719;DHT22;41623;46.104;19.656;2024-02-28T04:53:14;410.20;1817.60
55719;DHT22;41623;46.104;19.656;2024-02-28T04:55:40;410.20;1817.60
55719;DHT22;41623;46.104;19.656;2024-02-28T04:58:06;410.20;1817.60
55719;DHT22;41623;46.104;19.656;2024-02-28T05:00:31;410.20;1817.60
55719;DHT22;41623;46.104;19.656;2024-02-28T05:02:57;410.20;1817.60
55719;DHT22;41623;46.104;19.656;2024-02-28T05:05:23;410.20;1817.60
55719;DHT22;41623;46.104;19.656;2024-02-28T05:07:48;410.20;1817.60
55719;DHT22;41623;46.104;19.656;2024-02-28T05:10:14;410.20;1817.60
55719;DHT22;41623;46.104;19.656;2024-02-28T05:12:40;410.20;1817.60
55719;DHT22;41623;46.104;19.656;2024-02-28T05:15:06;410.20;1817.60
55719;DHT22;41623;46.104;19.656;2024-02-28T05:17:32;410.20;1817.60
55719;DHT22;41623;46.104;19.656;2024-02-28T05:19:58;410.20;1817.60
55719;DHT22;41623;46.104;19.656;2024-02-28T05:22:24;410.20;1817.60
55719;DHT22;41623;46.104;19.656;2024-02-28T05:24:49;410.20;1817.60
55719;DHT22;41623;46.104;19.656;2024-02-28T05:27:15;410.20;1817.60
55719;DHT22;41623;46.104;19.656;2024-02-28T05:29:41;410.20;1817.60
55719;DHT22;41623;46.104;19.656;2024-02-28T05:32:08;410.20;1817.60
55719;DHT22;41623;46.104;19.656;2024-02-28T05:34:34;410.20;1817.60
55719;DHT22;41623;46.104;19.656;2024-02-28T05:37:00;410.20;1817.60
55719;DHT22;41623;46.104;19.656;2024-02-28T05:39:27;410.20;1817.60
55719;DHT22;41623;46.104;19.656;2024-02-28T05:41:56;410.20;1817.60
55719;DHT22;41623;46.104;19.656;2024-02-28T05:44:23;410.20;1817.60
55719;DHT22;41623;46.104;19.656;2024-02-28T05:46:50;410.20;1817.60
55719;DHT22;41623;46.104;19.656;2024-02-28T05:49:15;410.20;1817.60
55719;DHT22;41623;46.104;19.656;2024-02-28T05:51:41;410.20;1817.60
55719;DHT22;41623;46.104;19.656;2024-02-28T05:54:07;410.20;1817.60
55719;DHT22;41623;46.104;19.656;2024-02-28T05:56:32;410.20;1817.60
55719;DHT22;41623;46.104;19.656;2024-02-28T05:58:58;410.20;1817.60
55719;DHT22;41623;46.104;19.656;2024-02-28T06:01:24;410.20;1817.60
55719;DHT22;41623;46.104;19.656;2024-02-28T06:03:50;410.20;1817.60
55719;DHT22;41623;46.104;19.656;2024-02-28T06:06:18;410.20;1817.60
55719;DHT22;41623;46.104;19.656;2024-02-28T06:08:44;410.20;1817.60
55719;DHT22;41623;46.104;19.656;2024-02-28T06:11:10;410.20;1817.60
55719;DHT22;41623;46.104;19.656;2024-02-28T06:13:36;410.20;1817.60
55719;DHT22;41623;46.104;19.656;2024-02-28T06:16:02;410.20;1817.60
55719;DHT22;41623;46.104;19.656;2024-02-28T06:18:29;410.20;1817.60
55719;DHT22;41623;46.104;19.656;2024-02-28T06:20:58;410.20;1817.60
55719;DHT22;41623;46.104;19.656;2024-02-28T06:23:25;410.20;1817.60
55719;DHT22;41623;46.104;19.656;2024-02-28T06:25:50;410.20;1817.60
55719;DHT22;41623;46.104;19.656;2024-02-28T06:28:16;410.20;1817.60
55719;DHT22;41623;46.104;19.656;2024-02-28T06:30:45;410.20;1817.60
55719;DHT22;41623;46.104;19.656;2024-02-28T06:33:15;410.20;1817.60
55719;DHT22;41623;46.104;19.656;2024-02-28T06:35:40;410.20;1817.60
55719;DHT22;41623;46.104;19.656;2024-02-28T06:38:06;410.20;1817.60
55719;DHT22;41623;46.104;19.656;2024-02-28T06:40:33;410.20;1817.60
55719;DHT22;41623;46.104;19.656;2024-02-28T06:43:00;410.20;1817.60
55719;DHT22;41623;46.104;19.656;2024-02-28T06:45:26;410.20;1817.60
55719;DHT22;41623;46.104;19.656;2024-02-28T06:47:52;410.20;1817.60
55719;DHT22;41623;46.104;19.656;2024-02-28T06:50:18;410.20;1817.60
55719;DHT22;41623;46.104;19.656;2024-02-28T06:52:44;410.20;1817.60
55719;DHT22;41623;46.104;19.656;2024-02-28T06:55:09;410.20;1817.60
55719;DHT22;41623;46.104;19.656;2024-02-28T06:57:40;410.20;1817.60
55719;DHT22;41623;46.104;19.656;2024-02-28T07:00:07;410.20;1817.60
55719;DHT22;41623;46.104;19.656;2024-02-28T07:02:37;410.20;1817.60
55719;DHT22;41623;46.104;19.656;2024-02-28T07:05:04;410.20;1817.60
55719;DHT22;41623;46.104;19.656;2024-02-28T07:07:30;410.20;1843.20
55719;DHT22;41623;46.104;19.656;2024-02-28T07:09:57;410.20;1817.60
55719;DHT22;41623;46.104;19.656;2024-02-28T07:12:23;410.20;1817.60
55719;DHT22;41623;46.104;19.656;2024-02-28T07:14:50;410.20;1817.60
55719;DHT22;41623;46.104;19.656;2024-02-28T07:17:16;410.20;1817.60
55719;DHT22;41623;46.104;19.656;2024-02-28T07:19:42;410.20;1817.60
55719;DHT22;41623;46.104;19.656;2024-02-28T07:22:08;410.20;1817.60
55719;DHT22;41623;46.104;19.656;2024-02-28T07:24:33;410.20;1817.60
55719;DHT22;41623;46.104;19.656;2024-02-28T07:26:59;410.20;1817.60
55719;DHT22;41623;46.104;19.656;2024-02-28T07:29:25;410.30;1817.60
55719;DHT22;41623;46.104;19.656;2024-02-28T07:31:51;410.20;1817.60
55719;DHT22;41623;46.104;19.656;2024-02-28T07:34:16;410.20;1817.60
55719;DHT22;41623;46.104;19.656;2024-02-28T07:36:42;410.20;1817.60
55719;DHT22;41623;46.104;19.656;2024-02-28T07:39:08;410.20;1817.60
55719;DHT22;41623;46.104;19.656;2024-02-28T07:41:41;410.20;1817.60
55719;DHT22;41623;46.104;19.656;2024-02-28T07:44:07;410.20;1817.60
55719;DHT22;41623;46.104;19.656;2024-02-28T07:46:34;410.20;1817.60
55719;DHT22;41623;46.104;19.656;2024-02-28T07:49:00;410.20;1817.60
55719;DHT22;41623;46.104;19.656;2024-02-28T07:51:26;410.20;1817.60
55719;DHT22;41623;46.104;19.656;2024-02-28T07:53:52;410.20;1817.60
55719;DHT22;41623;46.104;19.656;2024-02-28T07:56:19;410.20;1817.60
55719;DHT22;41623;46.104;19.656;2024-02-28T07:58:45;410.30;1817.60
55719;DHT22;41623;46.104;19.656;2024-02-28T08:01:11;410.20;1817.60
55719;DHT22;41623;46.104;19.656;2024-02-28T08:03:37;410.20;1817.60
55719;DHT22;41623;46.104;19.656;2024-02-28T08:06:03;410.30;1817.60
55719;DHT22;41623;46.104;19.656;2024-02-28T08:08:29;410.30;1817.60
55719;DHT22;41623;46.104;19.656;2024-02-28T08:10:56;410.30;1817.60
55719;DHT22;41623;46.104;19.656;2024-02-28T08:13:22;410.30;1817.60
55719;DHT22;41623;46.104;19.656;2024-02-28T08:15:48;410.30;1817.60
55719;DHT22;41623;46.104;19.656;2024-02-28T08:18:13;410.30;1817.60
55719;DHT22;41623;46.104;19.656;2024-02-28T08:20:39;410.30;1817.60
55719;DHT22;41623;46.104;19.656;2024-02-28T08:23:05;410.30;1817.60
55719;DHT22;41623;46.104;19.656;2024-02-28T08:25:32;410.30;1817.60
55719;DHT22;41623;46.104;19.656;2024-02-28T08:27:58;410.30;1817.60
55719;DHT22;41623;46.104;19.656;2024-02-28T08:30:23;410.30;1817.60
55719;DHT22;41623;46.104;19.656;2024-02-28T08:32:49;410.30;1817.60
55719;DHT22;41623;46.104;19.656;2024-02-28T08:35:16;410.30;1817.60
55719;DHT22;41623;46.104;19.656;2024-02-28T08:37:42;410.30;1817.60
55719;DHT22;41623;46.104;19.656;2024-02-28T08:40:08;410.30;1817.60
55719;DHT22;41623;46.104;19.656;2024-02-28T08:42:34;410.30;1817.60
55719;DHT22;41623;46.104;19.656;2024-02-28T08:45:00;410.30;1817.60
55719;DHT22;41623;46.104;19.656;2024-02-28T08:47:27;410.30;1817.60
55719;DHT22;41623;46.104;19.656;2024-02-28T08:49:53;410.30;1817.60
55719;DHT22;41623;46.104;19.656;2024-02-28T08:52:19;410.30;1817.60
55719;DHT22;41623;46.104;19.656;2024-02-28T08:54:45;410.30;1817.60
55719;DHT22;41623;46.104;19.656;2024-02-28T08:57:11;410.30;1817.60
55719;DHT22;41623;46.104;19.656;2024-02-28T08:59:37;410.30;1817.60
55719;DHT22;41623;46.104;19.656;2024-02-28T09:02:03;410.30;1817.60
55719;DHT22;41623;46.104;19.656;2024-02-28T09:04:29;410.30;1817.60
55719;DHT22;41623;46.104;19.656;2024-02-28T09:06:55;410.30;1817.60
55719;DHT22;41623;46.104;19.656;2024-02-28T09:09:21;410.30;1817.60
55719;DHT22;41623;46.104;19.656;2024-02-28T09:11:46;410.30;1817.60
55719;DHT22;41623;46.104;19.656;2024-02-28T09:14:12;410.30;1817.60
55719;DHT22;41623;46.104;19.656;2024-02-28T09:16:38;410.30;1792.00
55719;DHT22;41623;46.104;19.656;2024-02-28T09:19:05;410.30;1792.00
55719;DHT22;41623;46.104;19.656;2024-02-28T09:21:30;410.40;1792.00
55719;DHT22;41623;46.104;19.656;2024-02-28T09:23:56;410.30;1792.00
55719;DHT22;41623;46.104;19.656;2024-02-28T09:26:22;410.40;1792.00
55719;DHT22;41623;46.104;19.656;2024-02-28T09:28:48;410.30;1792.00
55719;DHT22;41623;46.104;19.656;2024-02-28T09:31:15;410.40;1792.00
55719;DHT22;41623;46.104;19.656;2024-02-28T09:33:41;410.40;1792.00
55719;DHT22;41623;46.104;19.656;2024-02-28T09:36:07;410.40;1792.00
55719;DHT22;41623;46.104;19.656;2024-02-28T09:38:33;410.40;1792.00
55719;DHT22;41623;46.104;19.656;2024-02-28T09:41:03;410.40;1792.00
55719;DHT22;41623;46.104;19.656;2024-02-28T09:43:35;410.40;1792.00
55719;DHT22;41623;46.104;19.656;2024-02-28T09:46:05;410.40;1792.00
55719;DHT22;41623;46.104;19.656;2024-02-28T09:48:32;410.40;1792.00
55719;DHT22;41623;46.104;19.656;2024-02-28T09:51:00;410.40;1792.00
55719;DHT22;41623;46.104;19.656;2024-02-28T09:53:26;410.40;1792.00
55719;DHT22;41623;46.104;19.656;2024-02-28T09:55:52;410.30;1792.00
55719;DHT22;41623;46.104;19.656;2024-02-28T09:58:19;410.50;1792.00
55719;DHT22;41623;46.104;19.656;2024-02-28T10:00:48;410.50;1792.00
55719;DHT22;41623;46.104;19.656;2024-02-28T10:03:17;410.50;1792.00
55719;DHT22;41623;46.104;19.656;2024-02-28T10:05:46;410.50;1792.00
55719;DHT22;41623;46.104;19.656;2024-02-28T10:08:12;410.50;1792.00
55719;DHT22;41623;46.104;19.656;2024-02-28T10:10:45;410.50;1792.00
55719;DHT22;41623;46.104;19.656;2024-02-28T10:13:12;410.50;1792.00
55719;DHT22;41623;46.104;19.656;2024-02-28T10:15:38;410.50;1792.00
55719;DHT22;41623;46.104;19.656;2024-02-28T10:18:04;410.50;1792.00
55719;DHT22;41623;46.104;19.656;2024-02-28T10:20:31;410.50;1792.00
55719;DHT22;41623;46.104;19.656;2024-02-28T10:22:56;435.20;1792.00
55719;DHT22;41623;46.104;19.656;2024-02-28T10:25:22;435.20;1792.00
55719;DHT22;41623;46.104;19.656;2024-02-28T10:27:49;435.20;1792.00
55719;DHT22;41623;46.104;19.656;2024-02-28T10:30:15;435.20;1792.00
55719;DHT22;41623;46.104;19.656;2024-02-28T10:32:51;435.20;1792.00
55719;DHT22;41623;46.104;19.656;2024-02-28T10:35:18;435.20;1792.00
55719;DHT22;41623;46.104;19.656;2024-02-28T10:37:51;435.20;1792.00
55719;DHT22;41623;46.104;19.656;2024-02-28T10:40:17;435.20;1792.00
55719;DHT22;41623;46.104;19.656;2024-02-28T10:42:44;435.20;1792.00
55719;DHT22;41623;46.104;19.656;2024-02-28T10:45:11;435.20;1792.00
55719;DHT22;41623;46.104;19.656;2024-02-28T10:47:38;435.20;1792.00
55719;DHT22;41623;46.104;19.656;2024-02-28T10:50:05;435.20;1792.00
55719;DHT22;41623;46.104;19.656;2024-02-28T10:52:33;435.20;1792.00
55719;DHT22;41623;46.104;19.656;2024-02-28T10:54:59;435.30;1792.00
55719;DHT22;41623;46.104;19.656;2024-02-28T10:57:29;435.30;1766.40
55719;DHT22;41623;46.104;19.656;2024-02-28T10:59:57;435.50;1766.40
55719;DHT22;41623;46.104;19.656;2024-02-28T11:04:52;435.90;1894.40
55719;DHT22;41623;46.104;19.656;2024-02-28T11:07:21;435.90;1715.20
55719;DHT22;41623;46.104;19.656;2024-02-28T11:09:47;435.90;1715.20
55719;DHT22;41623;46.104;19.656;2024-02-28T11:12:31;435.90;1689.60
55719;DHT22;41623;46.104;19.656;2024-02-28T11:15:01;436.00;1689.60
55719;DHT22;41623;46.104;19.656;2024-02-28T11:17:28;436.00;1689.60
55719;DHT22;41623;46.104;19.656;2024-02-28T11:19:55;435.90;1689.60
55719;DHT22;41623;46.104;19.656;2024-02-28T11:22:21;460.90;1843.20
55719;DHT22;41623;46.104;19.656;2024-02-28T11:24:47;435.90;1664.00
55719;DHT22;41623;46.104;19.656;2024-02-28T11:27:16;435.80;1664.00
55719;DHT22;41623;46.104;19.656;2024-02-28T11:29:42;435.70;1689.60
55719;DHT22;41623;46.104;19.656;2024-02-28T11:32:08;435.60;1689.60
55719;DHT22;41623;46.104;19.656;2024-02-28T11:34:36;435.60;1664.00
55719;DHT22;41623;46.104;19.656;2024-02-28T11:37:03;435.60;1664.00
55719;DHT22;41623;46.104;19.656;2024-02-28T11:39:29;435.60;1689.60
55719;DHT22;41623;46.104;19.656;2024-02-28T11:42:07;435.60;1587.20
55719;DHT22;41623;46.104;19.656;2024-02-28T11:44:34;435.70;1638.40
55719;DHT22;41623;46.104;19.656;2024-02-28T11:47:01;435.70;1638.40
55719;DHT22;41623;46.104;19.656;2024-02-28T11:49:28;435.70;1638.40
55719;DHT22;41623;46.104;19.656;2024-02-28T11:51:53;435.60;1638.40
55719;DHT22;41623;46.104;19.656;2024-02-28T11:54:19;435.70;1638.40
55719;DHT22;41623;46.104;19.656;2024-02-28T11:56:46;435.70;1612.80
55719;DHT22;41623;46.104;19.656;2024-02-28T11:59:12;435.70;1638.40
55719;DHT22;41623;46.104;19.656;2024-02-28T12:01:41;435.70;1638.40
55719;DHT22;41623;46.104;19.656;2024-02-28T12:04:09;435.70;1612.80
55719;DHT22;41623;46.104;19.656;2024-02-28T12:06:37;435.70;1587.20
55719;DHT22;41623;46.104;19.656;2024-02-28T12:09:11;435.80;1612.80
55719;DHT22;41623;46.104;19.656;2024-02-28T12:11:41;435.70;1612.80
55719;DHT22;41623;46.104;19.656;2024-02-28T12:14:07;435.70;1612.80
55719;DHT22;41623;46.104;19.656;2024-02-28T12:16:36;435.80;1612.80
55719;DHT22;41623;46.104;19.656;2024-02-28T12:19:10;435.80;1612.80
55719;DHT22;41623;46.104;19.656;2024-02-28T12:21:40;435.80;1612.80
55719;DHT22;41623;46.104;19.656;2024-02-28T12:24:08;435.80;1612.80
55719;DHT22;41623;46.104;19.656;2024-02-28T12:26:34;435.80;1587.20
55719;DHT22;41623;46.104;19.656;2024-02-28T12:29:00;435.80;1587.20
55719;DHT22;41623;46.104;19.656;2024-02-28T12:31:27;435.70;1587.20
55719;DHT22;41623;46.104;19.656;2024-02-28T12:33:53;435.70;1587.20
55719;DHT22;41623;46.104;19.656;2024-02-28T12:36:19;435.70;1587.20
55719;DHT22;41623;46.104;19.656;2024-02-28T12:38:46;435.70;1587.20
55719;DHT22;41623;46.104;19.656;2024-02-28T12:41:11;435.70;1587.20
55719;DHT22;41623;46.104;19.656;2024-02-28T12:43:38;435.70;1587.20
55719;DHT22;41623;46.104;19.656;2024-02-28T12:46:05;435.70;1587.20
55719;DHT22;41623;46.104;19.656;2024-02-28T12:48:37;435.60;1587.20
55719;DHT22;41623;46.104;19.656;2024-02-28T12:51:04;435.60;1612.80
55719;DHT22;41623;46.104;19.656;2024-02-28T12:53:34;435.50;1587.20
55719;DHT22;41623;46.104;19.656;2024-02-28T12:56:00;435.50;1587.20
55719;DHT22;41623;46.104;19.656;2024-02-28T12:58:26;435.50;1587.20
55719;DHT22;41623;46.104;19.656;2024-02-28T13:00:52;435.40;1612.80
55719;DHT22;41623;46.104;19.656;2024-02-28T13:03:18;435.50;1587.20
55719;DHT22;41623;46.104;19.656;2024-02-28T13:05:44;435.40;1587.20
55719;DHT22;41623;46.104;19.656;2024-02-28T13:08:10;435.40;1587.20
55719;DHT22;41623;46.104;19.656;2024-02-28T13:10:36;435.40;1612.80
55719;DHT22;41623;46.104;19.656;2024-02-28T13:13:06;435.40;1587.20
55719;DHT22;41623;46.104;19.656;2024-02-28T13:15:33;435.40;1587.20
55719;DHT22;41623;46.104;19.656;2024-02-28T13:17:59;435.30;1587.20
55719;DHT22;41623;46.104;19.656;2024-02-28T13:20:26;435.30;1587.20
55719;DHT22;41623;46.104;19.656;2024-02-28T13:22:52;435.30;1612.80
55719;DHT22;41623;46.104;19.656;2024-02-28T13:25:19;435.30;1612.80
55719;DHT22;41623;46.104;19.656;2024-02-28T13:27:45;435.30;1612.80
55719;DHT22;41623;46.104;19.656;2024-02-28T13:30:11;410.20;1612.80
55719;DHT22;41623;46.104;19.656;2024-02-28T13:32:37;435.30;1612.80
55719;DHT22;41623;46.104;19.656;2024-02-28T13:35:03;435.30;1612.80
55719;DHT22;41623;46.104;19.656;2024-02-28T13:37:29;435.20;1612.80
55719;DHT22;41623;46.104;19.656;2024-02-28T13:39:54;435.20;1612.80
55719;DHT22;41623;46.104;19.656;2024-02-28T13:42:21;435.30;1612.80
55719;DHT22;41623;46.104;19.656;2024-02-28T13:44:50;435.20;1587.20
55719;DHT22;41623;46.104;19.656;2024-02-28T13:47:15;435.30;1587.20
55719;DHT22;41623;46.104;19.656;2024-02-28T13:49:41;435.20;1612.80
55719;DHT22;41623;46.104;19.656;2024-02-28T13:52:07;435.20;1612.80
55719;DHT22;41623;46.104;19.656;2024-02-28T13:54:33;435.20;1612.80
55719;DHT22;41623;46.104;19.656;2024-02-28T13:57:00;435.20;1612.80
55719;DHT22;41623;46.104;19.656;2024-02-28T13:59:27;435.20;1612.80
55719;DHT22;41623;46.104;19.656;2024-02-28T14:01:52;435.20;1612.80
55719;DHT22;41623;46.104;19.656;2024-02-28T14:04:18;435.20;1638.40
55719;DHT22;41623;46.104;19.656;2024-02-28T14:06:44;435.20;1638.40
55719;DHT22;41623;46.104;19.656;2024-02-28T14:09:11;435.20;1638.40
55719;DHT22;41623;46.104;19.656;2024-02-28T14:11:36;435.20;1638.40
55719;DHT22;41623;46.104;19.656;2024-02-28T14:14:02;435.20;1612.80
55719;DHT22;41623;46.104;19.656;2024-02-28T14:16:29;435.20;1587.20
55719;DHT22;41623;46.104;19.656;2024-02-28T14:18:58;435.20;1587.20
55719;DHT22;41623;46.104;19.656;2024-02-28T14:21:23;435.20;1587.20
55719;DHT22;41623;46.104;19.656;2024-02-28T14:23:50;435.20;1561.60
55719;DHT22;41623;46.104;19.656;2024-02-28T14:26:17;435.20;1561.60
55719;DHT22;41623;46.104;19.656;2024-02-28T14:28:42;435.20;1561.60
55719;DHT22;41623;46.104;19.656;2024-02-28T14:31:08;435.20;1561.60
55719;DHT22;41623;46.104;19.656;2024-02-28T14:33:34;435.20;1587.20